createdAt,value
2023-01-27T00:00:25.320Z,11.27
2023-01-27T00:03:27.098Z,15.23
2023-01-27T00:06:28.888Z,12.10
2023-01-27T00:09:30.595Z,9.40
2023-01-27T00:12:50.894Z,7.90
2023-01-27T00:15:53.131Z,16.40
2023-01-27T00:18:54.899Z,16.03
2023-01-27T00:22:15.121Z,10.67
2023-01-27T00:25:17.419Z,9.37
2023-01-27T00:28:22.887Z,15.23
2023-01-27T00:31:43.553Z,16.57
2023-01-27T00:34:45.397Z,11.20
2023-01-27T00:37:47.391Z,13.43
2023-01-27T00:41:09.057Z,11.13
2023-01-27T00:44:13.169Z,9.63
2023-01-27T00:47:15.417Z,14.47
2023-01-27T00:50:17.675Z,16.23
2023-01-27T00:53:19.529Z,15.73
2023-01-27T00:56:21.250Z,13.80
2023-01-27T00:59:23.245Z,10.13
2023-01-27T01:02:25.186Z,10.13
2023-01-27T01:05:26.931Z,9.77
2023-01-27T01:08:30.470Z,12.37
2023-01-27T01:11:32.258Z,10.60
2023-01-27T01:14:33.978Z,12.83
2023-01-27T01:17:35.704Z,11.03
2023-01-27T01:20:39.853Z,11.47
2023-01-27T01:23:43.358Z,9.63
2023-01-27T01:26:45.089Z,11.77
2023-01-27T01:29:46.955Z,11.27
2023-01-27T01:32:48.672Z,16.47
2023-01-27T01:35:51.588Z,11.83
2023-01-27T01:38:57.081Z,12.93
2023-01-27T01:41:59.623Z,9.53
2023-01-27T01:45:30.390Z,10.77
2023-01-27T01:48:44.340Z,8.00
2023-01-27T01:51:53.256Z,15.00
2023-01-27T01:54:56.881Z,10.17
2023-01-27T01:58:01.650Z,15.40
2023-01-27T02:01:05.699Z,10.30
2023-01-27T02:04:13.988Z,12.57
2023-01-27T02:07:22.219Z,11.87
2023-01-27T02:10:27.233Z,10.70
2023-01-27T02:13:29.032Z,20.10
2023-01-27T02:16:32.765Z,10.50
2023-01-27T02:19:34.495Z,10.57
2023-01-27T02:22:46.969Z,16.20
2023-01-27T02:26:03.838Z,9.73
2023-01-27T02:29:09.673Z,8.00
2023-01-27T02:32:25.792Z,13.80
2023-01-27T02:35:37.972Z,8.90
2023-01-27T02:38:53.337Z,14.90
2023-01-27T02:41:57.586Z,21.07
2023-01-27T02:45:01.035Z,14.23
2023-01-27T02:48:02.837Z,9.80
2023-01-27T02:51:05.032Z,11.70
2023-01-27T02:54:09.288Z,11.60
2023-01-27T02:57:11.011Z,10.67
2023-01-27T03:00:26.118Z,14.03
2023-01-27T03:03:29.008Z,13.67
2023-01-27T03:06:30.714Z,23.03
2023-01-27T03:09:33.238Z,14.73
2023-01-27T03:12:36.290Z,12.40
2023-01-27T03:15:56.603Z,12.57
2023-01-27T03:18:58.378Z,18.20
2023-01-27T03:22:01.862Z,15.40
2023-01-27T03:25:05.919Z,15.73
2023-01-27T03:28:07.678Z,16.67
2023-01-27T03:31:20.692Z,17.83
2023-01-27T03:34:30.871Z,15.70
2023-01-27T03:37:58.665Z,13.67
2023-01-27T03:41:22.575Z,14.13
2023-01-27T03:44:43.060Z,12.17
2023-01-27T03:47:44.837Z,19.23
2023-01-27T03:50:53.175Z,16.27
2023-01-27T03:53:55.007Z,12.50
2023-01-27T03:56:56.719Z,12.17
2023-01-27T03:59:58.462Z,10.60
2023-01-27T04:03:18.972Z,15.80
2023-01-27T04:06:45.053Z,14.97
2023-01-27T04:09:46.793Z,11.57
2023-01-27T04:12:48.802Z,12.83
2023-01-27T04:15:54.765Z,10.60
2023-01-27T04:18:57.639Z,11.87
2023-01-27T04:22:00.934Z,12.53
2023-01-27T04:25:02.644Z,11.33
2023-01-27T04:28:04.433Z,10.23
2023-01-27T04:31:06.225Z,10.70
2023-01-27T04:34:10.128Z,8.63
2023-01-27T04:37:11.880Z,9.43
2023-01-27T04:40:13.832Z,9.83
2023-01-27T04:43:16.487Z,10.17
2023-01-27T04:46:22.570Z,12.83
2023-01-27T04:49:26.641Z,8.60
2023-01-27T04:52:28.431Z,16.03
2023-01-27T04:55:30.210Z,9.17
2023-01-27T04:58:32.067Z,8.63
2023-01-27T05:01:34.085Z,8.43
2023-01-27T05:04:35.841Z,6.57
2023-01-27T05:07:39.032Z,8.53
2023-01-27T05:10:44.523Z,9.43
2023-01-27T05:13:46.279Z,8.37
2023-01-27T05:16:48.055Z,9.77
2023-01-27T05:19:49.793Z,10.53
2023-01-27T05:22:51.886Z,7.07
2023-01-27T05:25:53.584Z,8.83
2023-01-27T05:28:57.549Z,9.83
2023-01-27T05:31:59.270Z,8.30
2023-01-27T05:35:00.973Z,9.83
2023-01-27T05:38:02.903Z,7.17
2023-01-27T05:41:07.327Z,6.60
2023-01-27T05:44:12.005Z,6.50
2023-01-27T05:47:13.688Z,6.23
2023-01-27T05:50:15.782Z,5.50
2023-01-27T05:53:18.563Z,5.40
2023-01-27T05:56:20.342Z,6.03
2023-01-27T05:59:22.031Z,6.43
2023-01-27T06:02:23.762Z,10.03
2023-01-27T06:05:25.491Z,10.50
2023-01-27T06:08:27.676Z,6.67
2023-01-27T06:11:29.578Z,8.30
2023-01-27T06:14:31.254Z,9.57
2023-01-27T06:17:32.959Z,5.70
2023-01-27T06:20:34.684Z,9.80
2023-01-27T06:23:37.076Z,7.33
2023-01-27T06:26:38.789Z,8.93
2023-01-27T06:29:40.454Z,7.70
2023-01-27T06:32:42.241Z,7.67
2023-01-27T06:35:44.139Z,8.23
2023-01-27T06:38:49.403Z,8.60
2023-01-27T06:41:51.144Z,7.80
2023-01-27T06:44:52.872Z,10.97
2023-01-27T06:48:01.779Z,8.43
2023-01-27T06:51:03.701Z,7.23
2023-01-27T06:54:05.439Z,9.40
2023-01-27T06:57:09.701Z,7.23
2023-01-27T07:00:12.327Z,9.37
2023-01-27T07:06:16.104Z,6.70
2023-01-27T07:09:17.985Z,9.37
2023-01-27T07:12:19.710Z,6.17
2023-01-27T07:15:21.422Z,6.03
2023-01-27T07:18:23.884Z,7.23
2023-01-27T07:21:26.095Z,6.43
2023-01-27T07:24:27.848Z,5.87
2023-01-27T07:27:29.763Z,9.13
2023-01-27T07:30:33.679Z,8.87
2023-01-27T07:33:35.518Z,6.43
2023-01-27T07:36:37.198Z,9.13
2023-01-27T07:39:39.367Z,11.40
2023-01-27T07:42:41.470Z,8.30
2023-01-27T07:45:43.231Z,6.23
2023-01-27T07:48:44.925Z,7.00
2023-01-27T07:51:46.705Z,8.10
2023-01-27T07:54:48.394Z,9.03
2023-01-27T07:57:53.546Z,6.23
2023-01-27T08:00:55.276Z,6.00
2023-01-27T08:03:57.213Z,7.13
2023-01-27T08:06:58.896Z,5.33
2023-01-27T08:10:01.060Z,6.97
2023-01-27T08:13:02.859Z,7.13
2023-01-27T08:16:07.021Z,7.13
2023-01-27T08:19:08.760Z,5.83
2023-01-27T08:22:10.447Z,6.90
2023-01-27T08:25:12.128Z,6.57
2023-01-27T08:28:13.853Z,5.20
2023-01-27T08:31:16.926Z,5.30
2023-01-27T08:34:18.755Z,5.23
2023-01-27T08:37:20.423Z,5.40
2023-01-27T08:40:22.183Z,6.77
2023-01-27T08:43:23.931Z,8.17
2023-01-27T08:46:25.851Z,5.60
2023-01-27T08:49:27.604Z,7.17
2023-01-27T08:52:30.755Z,6.80
2023-01-27T08:55:33.787Z,9.27
2023-01-27T08:58:36.445Z,6.43
2023-01-27T09:01:38.187Z,8.33
2023-01-27T09:04:43.763Z,6.13
2023-01-27T09:07:49.067Z,7.80
2023-01-27T09:10:50.808Z,6.93
2023-01-27T09:13:52.516Z,7.67
2023-01-27T09:16:54.223Z,5.80
2023-01-27T09:19:55.921Z,7.27
2023-01-27T09:22:57.899Z,8.17
2023-01-27T09:25:59.595Z,7.20
2023-01-27T09:29:01.284Z,7.03
2023-01-27T09:32:03.653Z,8.10
2023-01-27T09:35:06.051Z,9.80
2023-01-27T09:38:08.743Z,7.17
2023-01-27T09:41:31.899Z,7.90
2023-01-27T09:45:01.258Z,9.53
2023-01-27T09:48:19.303Z,9.30
2023-01-27T09:51:40.907Z,5.57
2023-01-27T09:54:56.560Z,4.47
2023-01-27T09:58:26.282Z,5.63
2023-01-27T10:01:55.136Z,5.50
2023-01-27T10:05:35.151Z,5.93
2023-01-27T10:08:51.764Z,7.60
2023-01-27T10:12:26.349Z,4.93
2023-01-27T10:15:39.475Z,4.53
2023-01-27T10:18:50.829Z,4.90
2023-01-27T10:21:59.615Z,4.93
2023-01-27T10:25:07.303Z,4.97
2023-01-27T10:28:23.556Z,5.27
2023-01-27T10:31:32.424Z,6.23
2023-01-27T10:34:57.411Z,7.73
2023-01-27T10:38:22.373Z,4.63
2023-01-27T10:41:54.168Z,3.97
2023-01-27T10:45:10.908Z,4.73
2023-01-27T10:48:48.197Z,6.83
2023-01-27T10:51:58.736Z,7.27
2023-01-27T10:55:22.494Z,6.23
2023-01-27T10:58:42.046Z,3.60
2023-01-27T11:01:50.084Z,3.83
2023-01-27T11:04:59.887Z,3.93
2023-01-27T11:08:18.671Z,4.20
2023-01-27T11:11:41.036Z,3.47
2023-01-27T11:14:49.895Z,3.73
2023-01-27T11:18:12.431Z,3.13
2023-01-27T11:21:21.652Z,3.63
2023-01-27T11:24:39.826Z,3.17
2023-01-27T11:28:17.398Z,3.33
2023-01-27T11:31:44.571Z,2.30
2023-01-27T11:34:49.954Z,2.93
2023-01-27T11:37:58.318Z,1.80
2023-01-27T11:41:05.375Z,3.27
2023-01-27T11:44:16.819Z,3.33
2023-01-27T11:47:26.043Z,2.53
2023-01-27T11:50:34.786Z,4.27
2023-01-27T11:53:40.130Z,2.30
2023-01-27T11:56:45.822Z,2.07
2023-01-27T11:59:51.324Z,3.00
2023-01-27T12:03:17.705Z,2.63
2023-01-27T12:06:36.664Z,2.67
2023-01-27T12:09:42.282Z,4.27
2023-01-27T12:12:44.761Z,3.70
2023-01-27T12:15:58.979Z,3.97
2023-01-27T12:19:05.413Z,4.67
2023-01-27T12:22:14.987Z,3.67
2023-01-27T12:25:27.822Z,3.00
2023-01-27T12:28:34.636Z,2.30
2023-01-27T12:31:46.664Z,3.37
2023-01-27T12:34:56.903Z,2.40
2023-01-27T12:38:22.118Z,2.53
2023-01-27T12:41:32.497Z,4.63
2023-01-27T12:44:42.743Z,2.70
2023-01-27T12:47:57.203Z,2.97
2023-01-27T12:51:16.383Z,2.87
2023-01-27T12:54:22.637Z,1.90
2023-01-27T12:57:33.301Z,2.30
2023-01-27T13:00:35.226Z,2.83
2023-01-27T13:03:40.632Z,2.53
2023-01-27T13:06:44.151Z,3.27
2023-01-27T13:10:03.362Z,3.17
2023-01-27T13:13:06.040Z,2.23
2023-01-27T13:16:27.450Z,1.97
2023-01-27T13:19:44.116Z,2.17
2023-01-27T13:22:48.927Z,2.10
2023-01-27T13:25:57.505Z,3.10
2023-01-27T13:29:04.865Z,1.50
2023-01-27T13:32:26.777Z,1.20
2023-01-27T13:35:37.236Z,3.13
2023-01-27T13:38:50.883Z,1.57
2023-01-27T13:42:16.047Z,3.50
2023-01-27T13:45:35.479Z,1.90
2023-01-27T13:49:15.591Z,1.80
2023-01-27T13:52:17.357Z,1.63
2023-01-27T13:55:31.710Z,2.20
2023-01-27T13:58:57.660Z,1.30
2023-01-27T14:02:30.657Z,0.80
2023-01-27T14:05:57.327Z,1.90
2023-01-27T14:09:06.026Z,0.90
2023-01-27T14:12:39.965Z,1.37
2023-01-27T14:15:54.742Z,2.87
2023-01-27T14:19:11.794Z,1.17
2023-01-27T14:22:21.266Z,2.57
2023-01-27T14:25:41.704Z,1.53
2023-01-27T14:29:04.483Z,2.10
2023-01-27T14:32:27.187Z,2.47
2023-01-27T14:35:31.321Z,1.97
2023-01-27T14:38:48.440Z,3.60
2023-01-27T14:42:02.615Z,3.07
2023-01-27T14:45:22.038Z,3.33
2023-01-27T14:48:45.873Z,1.40
2023-01-27T14:51:53.414Z,2.50
2023-01-27T14:55:15.544Z,2.07
2023-01-27T14:58:44.636Z,2.93
2023-01-27T15:01:54.689Z,4.50
2023-01-27T15:05:15.275Z,2.30
2023-01-27T15:08:21.869Z,3.50
2023-01-27T15:11:29.327Z,2.03
2023-01-27T15:14:57.629Z,6.27
2023-01-27T15:18:17.766Z,2.63
2023-01-27T15:21:38.252Z,3.47
2023-01-27T15:25:08.332Z,3.00
2023-01-27T15:28:15.878Z,6.80
2023-01-27T15:31:17.694Z,8.53
2023-01-27T15:34:23.334Z,3.57
2023-01-27T15:37:28.289Z,2.67
2023-01-27T15:40:30.004Z,2.00
2023-01-27T15:43:37.618Z,2.30
2023-01-27T15:46:49.925Z,2.27
2023-01-27T15:50:03.625Z,2.53
2023-01-27T15:53:15.838Z,1.73
2023-01-27T15:56:17.852Z,1.03
2023-01-27T15:59:24.999Z,2.33
2023-01-27T16:02:29.867Z,1.87
2023-01-27T16:05:44.859Z,6.43
2023-01-27T16:08:55.229Z,1.93
2023-01-27T16:12:26.893Z,0.90
2023-01-27T16:15:35.029Z,3.97
2023-01-27T16:19:04.854Z,1.63
2023-01-27T16:22:19.542Z,1.63
2023-01-27T16:25:38.790Z,1.57
2023-01-27T16:28:45.920Z,2.20
2023-01-27T16:31:54.359Z,1.80
2023-01-27T16:35:04.262Z,1.93
2023-01-27T16:38:37.973Z,1.60
2023-01-27T16:41:46.406Z,1.40
2023-01-27T16:44:51.321Z,2.37
2023-01-27T16:47:59.358Z,3.07
2023-01-27T16:51:28.199Z,3.70
2023-01-27T16:54:33.154Z,2.97
2023-01-27T16:57:41.934Z,2.00
2023-01-27T17:00:44.727Z,2.93
2023-01-27T17:03:47.274Z,2.30
2023-01-27T17:07:16.081Z,3.20
2023-01-27T17:10:32.986Z,1.10
2023-01-27T17:13:49.970Z,3.23
2023-01-27T17:16:51.756Z,2.60
2023-01-27T17:20:02.420Z,1.97
2023-01-27T17:23:05.344Z,2.20
2023-01-27T17:26:14.244Z,3.23
2023-01-27T17:29:19.493Z,1.63
2023-01-27T17:32:25.307Z,3.47
2023-01-27T17:35:30.504Z,1.33
2023-01-27T17:38:44.354Z,1.57
2023-01-27T17:41:46.007Z,1.43
2023-01-27T17:44:49.006Z,1.73
2023-01-27T17:47:51.039Z,1.23
2023-01-27T17:50:52.774Z,2.50
2023-01-27T17:53:55.311Z,1.97
2023-01-27T17:57:03.338Z,3.83
2023-01-27T18:00:09.621Z,5.87
2023-01-27T18:03:20.060Z,5.30
2023-01-27T18:06:24.735Z,1.63
2023-01-27T18:09:27.720Z,1.37
2023-01-27T18:12:35.825Z,1.27
2023-01-27T18:15:37.605Z,3.20
2023-01-27T18:18:39.519Z,2.87
2023-01-27T18:21:41.255Z,3.30
2023-01-27T18:24:54.980Z,1.47
2023-01-27T18:27:59.313Z,2.70
2023-01-27T18:31:01.502Z,6.80
2023-01-27T18:34:06.314Z,1.90
2023-01-27T18:37:36.039Z,3.23
2023-01-27T18:40:37.874Z,3.73
2023-01-27T18:43:39.551Z,5.90
2023-01-27T18:46:41.291Z,4.33
2023-01-27T18:49:54.147Z,2.90
2023-01-27T18:52:56.149Z,4.40
2023-01-27T18:55:58.987Z,3.70
2023-01-27T18:59:00.669Z,4.33
2023-01-27T19:02:04.053Z,3.70
2023-01-27T19:05:25.142Z,6.17
2023-01-27T19:08:26.975Z,4.67
2023-01-27T19:11:28.695Z,5.23
2023-01-27T19:14:30.399Z,4.47
2023-01-27T19:17:32.102Z,7.20
2023-01-27T19:20:33.783Z,5.70
2023-01-27T19:23:35.474Z,5.03
2023-01-27T19:26:37.165Z,3.53
2023-01-27T19:29:38.946Z,3.60
2023-01-27T19:32:40.635Z,2.97
2023-01-27T19:35:44.058Z,4.07
2023-01-27T19:38:46.001Z,3.60
2023-01-27T19:41:47.814Z,4.23
2023-01-27T19:44:49.530Z,3.63
2023-01-27T19:47:52.764Z,5.13
2023-01-27T19:50:54.476Z,4.07
2023-01-27T19:53:56.374Z,3.43
2023-01-27T19:56:58.053Z,3.63
2023-01-27T19:59:59.764Z,3.60
2023-01-27T20:03:02.020Z,4.47
2023-01-27T20:06:09.033Z,5.63
2023-01-27T20:09:10.905Z,5.07
2023-01-27T20:12:16.194Z,3.73
2023-01-27T20:15:18.407Z,5.43
2023-01-27T20:18:22.801Z,4.33
2023-01-27T20:21:25.940Z,3.10
2023-01-27T20:24:28.097Z,3.73
2023-01-27T20:27:30.535Z,5.00
2023-01-27T20:30:33.582Z,2.97
2023-01-27T20:33:35.296Z,4.13
2023-01-27T20:36:37.017Z,4.27
2023-01-27T20:39:38.693Z,5.73
2023-01-27T20:42:40.433Z,4.67
2023-01-27T20:45:42.182Z,4.43
2023-01-27T20:48:44.398Z,2.90
2023-01-27T20:51:46.095Z,3.07
2023-01-27T20:54:47.813Z,4.20
2023-01-27T20:57:49.599Z,3.07
2023-01-27T21:00:51.506Z,3.30
2023-01-27T21:03:53.292Z,4.87
2023-01-27T21:06:55.122Z,6.83
2023-01-27T21:09:56.827Z,3.97
2023-01-27T21:12:58.550Z,5.57
2023-01-27T21:16:01.641Z,3.07
2023-01-27T21:19:03.554Z,2.57
2023-01-27T21:22:05.284Z,4.93
2023-01-27T21:25:07.306Z,3.47
2023-01-27T21:28:09.060Z,3.17
2023-01-27T21:31:16.151Z,3.83
2023-01-27T21:34:17.978Z,7.80
2023-01-27T21:37:19.669Z,3.00
2023-01-27T21:40:21.336Z,4.67
2023-01-27T21:43:41.934Z,2.93
2023-01-27T21:46:43.632Z,3.97
2023-01-27T21:50:02.301Z,2.43
2023-01-27T21:53:11.653Z,3.73
2023-01-27T21:56:13.330Z,3.70
2023-01-27T21:59:15.165Z,7.00
2023-01-27T22:02:17.519Z,4.20
2023-01-27T22:05:19.266Z,6.80
2023-01-27T22:08:20.940Z,7.27
2023-01-27T22:11:22.660Z,4.30
2023-01-27T22:14:24.599Z,7.67
2023-01-27T22:17:26.555Z,3.77
2023-01-27T22:20:28.415Z,5.00
2023-01-27T22:23:30.297Z,5.87
2023-01-27T22:26:32.027Z,4.40
2023-01-27T22:29:33.727Z,2.73
2023-01-27T22:32:35.748Z,2.93
2023-01-27T22:35:37.495Z,5.70
2023-01-27T22:38:39.258Z,4.37
2023-01-27T22:41:40.959Z,6.47
2023-01-27T22:44:42.687Z,5.67
2023-01-27T22:47:44.407Z,5.50
2023-01-27T22:50:46.175Z,2.77
2023-01-27T22:53:47.892Z,7.70
2023-01-27T22:56:49.573Z,4.40
2023-01-27T22:59:51.261Z,4.13
2023-01-27T23:02:53.004Z,5.53
2023-01-27T23:05:54.741Z,3.43
2023-01-27T23:08:56.427Z,4.77
2023-01-27T23:11:58.110Z,6.30
2023-01-27T23:15:01.676Z,3.83
2023-01-27T23:18:11.118Z,8.00
2023-01-27T23:21:12.820Z,3.97
2023-01-27T23:24:15.335Z,4.43
2023-01-27T23:27:17.054Z,6.40
2023-01-27T23:30:19.741Z,3.73
2023-01-27T23:33:21.562Z,7.47
2023-01-27T23:36:23.274Z,7.13
2023-01-27T23:39:24.993Z,5.63
2023-01-27T23:42:26.726Z,7.97
2023-01-27T23:45:29.073Z,7.20
2023-01-27T23:48:30.773Z,6.80
2023-01-27T23:51:32.533Z,5.20
2023-01-27T23:54:34.244Z,6.60
2023-01-27T23:57:35.961Z,5.47
